sensor_id;sensor_type;location;lat;lon;timestamp;P1;durP1;ratioP1;P2;durP2;ratioP2
24147;SDS011;12309;51.450;-2.624;2024-03-02T00:00:05;2.87;;;1.63;;
24147;SDS011;12309;51.450;-2.624;2024-03-02T00:02:54;4.13;;;1.73;;
24147;SDS011;12309;51.450;-2.624;2024-03-02T00:05:21;1.57;;;1.37;;
24147;SDS011;12309;51.450;-2.624;2024-03-02T00:07:59;2.13;;;1.63;;
24147;SDS011;12309;51.450;-2.624;2024-03-02T00:10:27;2.87;;;1.97;;
24147;SDS011;12309;51.450;-2.624;2024-03-02T00:13:00;4.93;;;2.00;;
24147;SDS011;12309;51.450;-2.624;2024-03-02T00:18:11;2.00;;;1.80;;
24147;SDS011;12309;51.450;-2.624;2024-03-02T00:20:38;1.77;;;1.67;;
24147;SDS011;12309;51.450;-2.624;2024-03-02T00:23:06;2.00;;;1.70;;
24147;SDS011;12309;51.450;-2.624;2024-03-02T00:25:37;4.53;;;1.73;;
24147;SDS011;12309;51.450;-2.624;2024-03-02T00:28:18;2.03;;;1.40;;
24147;SDS011;12309;51.450;-2.624;2024-03-02T00:33:33;1.67;;;1.57;;
24147;SDS011;12309;51.450;-2.624;2024-03-02T00:36:01;3.63;;;1.60;;
24147;SDS011;12309;51.450;-2.624;2024-03-02T00:38:28;4.33;;;1.70;;
24147;SDS011;12309;51.450;-2.624;2024-03-02T00:40:55;2.57;;;1.43;;
24147;SDS011;12309;51.450;-2.624;2024-03-02T00:46:06;2.30;;;1.50;;
24147;SDS011;12309;51.450;-2.624;2024-03-02T00:48:32;1.43;;;1.30;;
24147;SDS011;12309;51.450;-2.624;2024-03-02T00:51:02;3.10;;;1.50;;
24147;SDS011;12309;51.450;-2.624;2024-03-02T00:53:31;2.80;;;1.40;;
24147;SDS011;12309;51.450;-2.624;2024-03-02T00:56:00;1.40;;;1.30;;
24147;SDS011;12309;51.450;-2.624;2024-03-02T00:58:26;1.30;;;1.20;;
24147;SDS011;12309;51.450;-2.624;2024-03-02T01:00:52;1.40;;;1.30;;
24147;SDS011;12309;51.450;-2.624;2024-03-02T01:03:18;2.47;;;1.43;;
24147;SDS011;12309;51.450;-2.624;2024-03-02T01:05:44;2.13;;;1.50;;
24147;SDS011;12309;51.450;-2.624;2024-03-02T01:08:10;2.60;;;1.30;;
24147;SDS011;12309;51.450;-2.624;2024-03-02T01:10:36;1.60;;;1.50;;
24147;SDS011;12309;51.450;-2.624;2024-03-02T01:13:02;2.00;;;1.70;;
24147;SDS011;12309;51.450;-2.624;2024-03-02T01:15:28;1.93;;;1.47;;
24147;SDS011;12309;51.450;-2.624;2024-03-02T01:17:54;4.80;;;1.97;;
24147;SDS011;12309;51.450;-2.624;2024-03-02T01:20:20;2.37;;;1.53;;
24147;SDS011;12309;51.450;-2.624;2024-03-02T01:22:46;3.63;;;1.70;;
24147;SDS011;12309;51.450;-2.624;2024-03-02T01:25:12;2.63;;;1.47;;
24147;SDS011;12309;51.450;-2.624;2024-03-02T01:27:38;2.23;;;1.33;;
24147;SDS011;12309;51.450;-2.624;2024-03-02T01:30:04;3.10;;;1.77;;
24147;SDS011;12309;51.450;-2.624;2024-03-02T01:32:30;3.03;;;1.60;;
24147;SDS011;12309;51.450;-2.624;2024-03-02T01:34:56;1.87;;;1.60;;
24147;SDS011;12309;51.450;-2.624;2024-03-02T01:37:22;1.70;;;1.60;;
24147;SDS011;12309;51.450;-2.624;2024-03-02T01:39:48;2.00;;;1.43;;
24147;SDS011;12309;51.450;-2.624;2024-03-02T01:42:13;1.67;;;1.40;;
24147;SDS011;12309;51.450;-2.624;2024-03-02T01:44:39;2.13;;;1.40;;
24147;SDS011;12309;51.450;-2.624;2024-03-02T01:47:05;1.50;;;1.40;;
24147;SDS011;12309;51.450;-2.624;2024-03-02T01:49:31;3.90;;;1.70;;
24147;SDS011;12309;51.450;-2.624;2024-03-02T01:51:59;3.37;;;1.63;;
24147;SDS011;12309;51.450;-2.624;2024-03-02T01:54:24;2.97;;;1.60;;
24147;SDS011;12309;51.450;-2.624;2024-03-02T01:56:50;2.93;;;1.70;;
24147;SDS011;12309;51.450;-2.624;2024-03-02T01:59:17;2.13;;;1.40;;
24147;SDS011;12309;51.450;-2.624;2024-03-02T02:01:43;3.03;;;1.60;;
24147;SDS011;12309;51.450;-2.624;2024-03-02T02:04:08;2.23;;;1.60;;
24147;SDS011;12309;51.450;-2.624;2024-03-02T02:06:34;2.60;;;1.63;;
24147;SDS011;12309;51.450;-2.624;2024-03-02T02:09:00;2.80;;;1.50;;
24147;SDS011;12309;51.450;-2.624;2024-03-02T02:11:26;2.40;;;1.40;;
24147;SDS011;12309;51.450;-2.624;2024-03-02T02:13:51;2.03;;;1.40;;
24147;SDS011;12309;51.450;-2.624;2024-03-02T02:16:20;1.50;;;1.40;;
24147;SDS011;12309;51.450;-2.624;2024-03-02T02:18:46;1.37;;;1.27;;
24147;SDS011;12309;51.450;-2.624;2024-03-02T02:21:12;3.53;;;1.53;;
24147;SDS011;12309;51.450;-2.624;2024-03-02T02:23:38;1.60;;;1.50;;
24147;SDS011;12309;51.450;-2.624;2024-03-02T02:26:03;2.37;;;1.40;;
24147;SDS011;12309;51.450;-2.624;2024-03-02T02:28:29;1.40;;;1.30;;
24147;SDS011;12309;51.450;-2.624;2024-03-02T02:30:55;2.13;;;1.40;;
24147;SDS011;12309;51.450;-2.624;2024-03-02T02:33:25;1.80;;;1.60;;
24147;SDS011;12309;51.450;-2.624;2024-03-02T02:35:50;1.70;;;1.30;;
24147;SDS011;12309;51.450;-2.624;2024-03-02T02:38:16;3.00;;;1.50;;
24147;SDS011;12309;51.450;-2.624;2024-03-02T02:40:42;2.60;;;1.40;;
24147;SDS011;12309;51.450;-2.624;2024-03-02T02:43:08;2.10;;;1.43;;
24147;SDS011;12309;51.450;-2.624;2024-03-02T02:45:34;2.13;;;1.63;;
24147;SDS011;12309;51.450;-2.624;2024-03-02T02:48:00;3.00;;;1.60;;
24147;SDS011;12309;51.450;-2.624;2024-03-02T02:50:27;2.30;;;1.43;;
24147;SDS011;12309;51.450;-2.624;2024-03-02T02:52:53;1.57;;;1.33;;
24147;SDS011;12309;51.450;-2.624;2024-03-02T02:55:18;1.50;;;1.30;;
24147;SDS011;12309;51.450;-2.624;2024-03-02T02:57:44;2.77;;;1.50;;
24147;SDS011;12309;51.450;-2.624;2024-03-02T03:00:12;1.57;;;1.30;;
24147;SDS011;12309;51.450;-2.624;2024-03-02T03:02:40;2.13;;;1.27;;
24147;SDS011;12309;51.450;-2.624;2024-03-02T03:05:07;1.30;;;1.20;;
24147;SDS011;12309;51.450;-2.624;2024-03-02T03:07:39;2.90;;;1.40;;
24147;SDS011;12309;51.450;-2.624;2024-03-02T03:10:06;3.27;;;1.50;;
24147;SDS011;12309;51.450;-2.624;2024-03-02T03:12:32;1.50;;;1.40;;
24147;SDS011;12309;51.450;-2.624;2024-03-02T03:14:59;2.83;;;1.40;;
24147;SDS011;12309;51.450;-2.624;2024-03-02T03:17:25;1.80;;;1.70;;
24147;SDS011;12309;51.450;-2.624;2024-03-02T03:19:52;3.93;;;1.63;;
24147;SDS011;12309;51.450;-2.624;2024-03-02T03:22:18;3.33;;;1.70;;
24147;SDS011;12309;51.450;-2.624;2024-03-02T03:24:43;1.70;;;1.60;;
24147;SDS011;12309;51.450;-2.624;2024-03-02T03:27:09;1.97;;;1.63;;
24147;SDS011;12309;51.450;-2.624;2024-03-02T03:29:36;4.17;;;1.97;;
24147;SDS011;12309;51.450;-2.624;2024-03-02T03:32:02;2.77;;;1.70;;
24147;SDS011;12309;51.450;-2.624;2024-03-02T03:34:29;2.47;;;1.90;;
24147;SDS011;12309;51.450;-2.624;2024-03-02T03:36:58;1.83;;;1.70;;
24147;SDS011;12309;51.450;-2.624;2024-03-02T03:39:23;3.53;;;1.73;;
24147;SDS011;12309;51.450;-2.624;2024-03-02T03:41:49;3.80;;;1.70;;
24147;SDS011;12309;51.450;-2.624;2024-03-02T03:44:14;3.53;;;1.53;;
24147;SDS011;12309;51.450;-2.624;2024-03-02T03:46:40;2.90;;;1.70;;
24147;SDS011;12309;51.450;-2.624;2024-03-02T03:49:06;3.40;;;1.60;;
24147;SDS011;12309;51.450;-2.624;2024-03-02T03:51:33;1.40;;;1.30;;
24147;SDS011;12309;51.450;-2.624;2024-03-02T03:53:59;3.77;;;1.63;;
24147;SDS011;12309;51.450;-2.624;2024-03-02T03:56:24;3.40;;;1.60;;
24147;SDS011;12309;51.450;-2.624;2024-03-02T03:58:50;2.40;;;1.60;;
24147;SDS011;12309;51.450;-2.624;2024-03-02T04:01:16;2.00;;;1.70;;
24147;SDS011;12309;51.450;-2.624;2024-03-02T04:03:41;5.00;;;1.63;;
24147;SDS011;12309;51.450;-2.624;2024-03-02T04:06:07;2.83;;;1.60;;
24147;SDS011;12309;51.450;-2.624;2024-03-02T04:08:33;2.73;;;1.70;;
24147;SDS011;12309;51.450;-2.624;2024-03-02T04:10:59;3.47;;;1.60;;
24147;SDS011;12309;51.450;-2.624;2024-03-02T04:13:24;2.40;;;1.70;;
24147;SDS011;12309;51.450;-2.624;2024-03-02T04:15:50;2.50;;;1.53;;
24147;SDS011;12309;51.450;-2.624;2024-03-02T04:18:16;4.10;;;1.90;;
24147;SDS011;12309;51.450;-2.624;2024-03-02T04:20:42;3.23;;;1.57;;
24147;SDS011;12309;51.450;-2.624;2024-03-02T04:23:07;3.07;;;1.70;;
24147;SDS011;12309;51.450;-2.624;2024-03-02T04:25:33;2.73;;;1.80;;
24147;SDS011;12309;51.450;-2.624;2024-03-02T04:27:59;2.53;;;1.70;;
24147;SDS011;12309;51.450;-2.624;2024-03-02T04:30:25;2.97;;;1.80;;
24147;SDS011;12309;51.450;-2.624;2024-03-02T04:32:50;3.07;;;1.90;;
24147;SDS011;12309;51.450;-2.624;2024-03-02T04:35:16;1.70;;;1.60;;
24147;SDS011;12309;51.450;-2.624;2024-03-02T04:37:42;2.97;;;1.60;;
24147;SDS011;12309;51.450;-2.624;2024-03-02T04:40:07;2.73;;;1.60;;
24147;SDS011;12309;51.450;-2.624;2024-03-02T04:42:34;2.70;;;1.50;;
24147;SDS011;12309;51.450;-2.624;2024-03-02T04:45:00;1.50;;;1.40;;
24147;SDS011;12309;51.450;-2.624;2024-03-02T04:47:25;1.57;;;1.40;;
24147;SDS011;12309;51.450;-2.624;2024-03-02T04:49:51;1.90;;;1.37;;
24147;SDS011;12309;51.450;-2.624;2024-03-02T04:52:17;1.60;;;1.40;;
24147;SDS011;12309;51.450;-2.624;2024-03-02T04:54:43;1.30;;;1.20;;
24147;SDS011;12309;51.450;-2.624;2024-03-02T04:57:27;1.27;;;1.20;;
24147;SDS011;12309;51.450;-2.624;2024-03-02T04:59:53;1.30;;;1.20;;
24147;SDS011;12309;51.450;-2.624;2024-03-02T05:02:18;1.27;;;1.17;;
24147;SDS011;12309;51.450;-2.624;2024-03-02T05:04:44;1.30;;;1.30;;
24147;SDS011;12309;51.450;-2.624;2024-03-02T05:07:10;1.40;;;1.30;;
24147;SDS011;12309;51.450;-2.624;2024-03-02T05:09:35;1.90;;;1.40;;
24147;SDS011;12309;51.450;-2.624;2024-03-02T05:12:01;4.23;;;1.43;;
24147;SDS011;12309;51.450;-2.624;2024-03-02T05:14:29;1.10;;;1.10;;
24147;SDS011;12309;51.450;-2.624;2024-03-02T05:16:55;1.40;;;1.30;;
24147;SDS011;12309;51.450;-2.624;2024-03-02T05:19:21;1.40;;;1.30;;
24147;SDS011;12309;51.450;-2.624;2024-03-02T05:21:47;1.53;;;1.10;;
24147;SDS011;12309;51.450;-2.624;2024-03-02T05:24:13;1.37;;;1.20;;
24147;SDS011;12309;51.450;-2.624;2024-03-02T05:26:39;1.10;;;1.10;;
24147;SDS011;12309;51.450;-2.624;2024-03-02T05:29:05;2.80;;;1.20;;
24147;SDS011;12309;51.450;-2.624;2024-03-02T05:31:31;1.10;;;1.10;;
24147;SDS011;12309;51.450;-2.624;2024-03-02T05:33:57;1.20;;;1.10;;
24147;SDS011;12309;51.450;-2.624;2024-03-02T05:36:22;1.10;;;1.10;;
24147;SDS011;12309;51.450;-2.624;2024-03-02T05:38:48;1.30;;;1.20;;
24147;SDS011;12309;51.450;-2.624;2024-03-02T05:41:14;1.47;;;1.37;;
24147;SDS011;12309;51.450;-2.624;2024-03-02T05:43:40;1.10;;;1.10;;
24147;SDS011;12309;51.450;-2.624;2024-03-02T05:46:05;1.57;;;1.30;;
24147;SDS011;12309;51.450;-2.624;2024-03-02T05:48:31;1.30;;;1.20;;
24147;SDS011;12309;51.450;-2.624;2024-03-02T05:50:57;1.13;;;1.03;;
24147;SDS011;12309;51.450;-2.624;2024-03-02T05:53:23;1.03;;;1.03;;
24147;SDS011;12309;51.450;-2.624;2024-03-02T05:55:48;1.00;;;1.00;;
24147;SDS011;12309;51.450;-2.624;2024-03-02T05:58:20;1.00;;;1.00;;
24147;SDS011;12309;51.450;-2.624;2024-03-02T06:01:04;1.47;;;1.30;;
24147;SDS011;12309;51.450;-2.624;2024-03-02T06:03:30;1.10;;;1.10;;
24147;SDS011;12309;51.450;-2.624;2024-03-02T06:05:56;2.27;;;1.30;;
24147;SDS011;12309;51.450;-2.624;2024-03-02T06:08:22;1.20;;;1.20;;
24147;SDS011;12309;51.450;-2.624;2024-03-02T06:10:47;1.47;;;1.37;;
24147;SDS011;12309;51.450;-2.624;2024-03-02T06:13:13;1.00;;;1.00;;
24147;SDS011;12309;51.450;-2.624;2024-03-02T06:15:39;8.77;;;1.77;;
24147;SDS011;12309;51.450;-2.624;2024-03-02T06:18:04;1.93;;;1.10;;
24147;SDS011;12309;51.450;-2.624;2024-03-02T06:20:32;1.10;;;1.10;;
24147;SDS011;12309;51.450;-2.624;2024-03-02T06:22:58;7.27;;;2.03;;
24147;SDS011;12309;51.450;-2.624;2024-03-02T06:25:24;1.10;;;1.10;;
24147;SDS011;12309;51.450;-2.624;2024-03-02T06:27:50;1.23;;;1.10;;
24147;SDS011;12309;51.450;-2.624;2024-03-02T06:30:15;1.20;;;1.20;;
24147;SDS011;12309;51.450;-2.624;2024-03-02T06:32:41;1.30;;;1.20;;
24147;SDS011;12309;51.450;-2.624;2024-03-02T06:35:07;1.20;;;1.20;;
24147;SDS011;12309;51.450;-2.624;2024-03-02T06:37:35;1.10;;;1.10;;
24147;SDS011;12309;51.450;-2.624;2024-03-02T06:40:02;1.10;;;1.10;;
24147;SDS011;12309;51.450;-2.624;2024-03-02T06:42:27;1.20;;;1.20;;
24147;SDS011;12309;51.450;-2.624;2024-03-02T06:44:58;1.00;;;1.00;;
24147;SDS011;12309;51.450;-2.624;2024-03-02T06:47:24;1.20;;;1.20;;
24147;SDS011;12309;51.450;-2.624;2024-03-02T06:49:49;1.20;;;1.10;;
24147;SDS011;12309;51.450;-2.624;2024-03-02T06:52:15;1.27;;;1.27;;
24147;SDS011;12309;51.450;-2.624;2024-03-02T06:54:41;1.53;;;1.20;;
24147;SDS011;12309;51.450;-2.624;2024-03-02T06:57:07;1.40;;;1.30;;
24147;SDS011;12309;51.450;-2.624;2024-03-02T06:59:33;1.30;;;1.20;;
24147;SDS011;12309;51.450;-2.624;2024-03-02T07:01:58;1.70;;;1.60;;
24147;SDS011;12309;51.450;-2.624;2024-03-02T07:04:24;1.40;;;1.30;;
24147;SDS011;12309;51.450;-2.624;2024-03-02T07:06:50;1.60;;;1.50;;
24147;SDS011;12309;51.450;-2.624;2024-03-02T07:09:16;1.53;;;1.43;;
24147;SDS011;12309;51.450;-2.624;2024-03-02T07:11:42;1.60;;;1.50;;
24147;SDS011;12309;51.450;-2.624;2024-03-02T07:14:08;1.87;;;1.50;;
24147;SDS011;12309;51.450;-2.624;2024-03-02T07:16:34;1.90;;;1.80;;
24147;SDS011;12309;51.450;-2.624;2024-03-02T07:19:03;1.70;;;1.60;;
24147;SDS011;12309;51.450;-2.624;2024-03-02T07:21:29;1.73;;;1.60;;
24147;SDS011;12309;51.450;-2.624;2024-03-02T07:23:54;2.30;;;2.07;;
24147;SDS011;12309;51.450;-2.624;2024-03-02T07:26:20;1.93;;;1.83;;
24147;SDS011;12309;51.450;-2.624;2024-03-02T07:28:46;1.93;;;1.83;;
24147;SDS011;12309;51.450;-2.624;2024-03-02T07:31:13;1.80;;;1.70;;
24147;SDS011;12309;51.450;-2.624;2024-03-02T07:33:39;1.60;;;1.50;;
24147;SDS011;12309;51.450;-2.624;2024-03-02T07:36:04;2.47;;;1.90;;
24147;SDS011;12309;51.450;-2.624;2024-03-02T07:38:31;2.10;;;1.90;;
24147;SDS011;12309;51.450;-2.624;2024-03-02T07:40:59;2.07;;;1.97;;
24147;SDS011;12309;51.450;-2.624;2024-03-02T07:43:25;2.83;;;2.27;;
24147;SDS011;12309;51.450;-2.624;2024-03-02T07:45:51;2.50;;;2.30;;
24147;SDS011;12309;51.450;-2.624;2024-03-02T07:48:16;3.70;;;2.70;;
24147;SDS011;12309;51.450;-2.624;2024-03-02T07:50:42;2.93;;;2.60;;
24147;SDS011;12309;51.450;-2.624;2024-03-02T07:53:08;3.80;;;2.40;;
24147;SDS011;12309;51.450;-2.624;2024-03-02T07:55:34;4.17;;;2.37;;
24147;SDS011;12309;51.450;-2.624;2024-03-02T07:58:00;2.57;;;2.20;;
24147;SDS011;12309;51.450;-2.624;2024-03-02T08:00:26;2.50;;;2.30;;
24147;SDS011;12309;51.450;-2.624;2024-03-02T08:02:53;2.63;;;2.43;;
24147;SDS011;12309;51.450;-2.624;2024-03-02T08:05:19;2.60;;;2.40;;
24147;SDS011;12309;51.450;-2.624;2024-03-02T08:07:45;2.50;;;2.30;;
24147;SDS011;12309;51.450;-2.624;2024-03-02T08:10:12;2.50;;;2.30;;
24147;SDS011;12309;51.450;-2.624;2024-03-02T08:12:38;2.50;;;2.30;;
24147;SDS011;12309;51.450;-2.624;2024-03-02T08:15:04;2.40;;;2.20;;
24147;SDS011;12309;51.450;-2.624;2024-03-02T08:17:30;2.53;;;2.33;;
24147;SDS011;12309;51.450;-2.624;2024-03-02T08:19:56;2.60;;;2.40;;
24147;SDS011;12309;51.450;-2.624;2024-03-02T08:22:23;2.40;;;2.20;;
24147;SDS011;12309;51.450;-2.624;2024-03-02T08:24:52;2.60;;;2.20;;
24147;SDS011;12309;51.450;-2.624;2024-03-02T08:27:18;2.30;;;2.10;;
24147;SDS011;12309;51.450;-2.624;2024-03-02T08:29:44;2.60;;;2.40;;
24147;SDS011;12309;51.450;-2.624;2024-03-02T08:32:10;2.40;;;2.20;;
24147;SDS011;12309;51.450;-2.624;2024-03-02T08:34:35;2.50;;;2.30;;
24147;SDS011;12309;51.450;-2.624;2024-03-02T08:37:01;1.90;;;1.80;;
24147;SDS011;12309;51.450;-2.624;2024-03-02T08:39:27;2.13;;;1.93;;
24147;SDS011;12309;51.450;-2.624;2024-03-02T08:41:53;2.10;;;2.00;;
24147;SDS011;12309;51.450;-2.624;2024-03-02T08:44:19;1.83;;;1.73;;
24147;SDS011;12309;51.450;-2.624;2024-03-02T08:46:45;1.93;;;1.83;;
24147;SDS011;12309;51.450;-2.624;2024-03-02T08:49:11;2.10;;;1.90;;
24147;SDS011;12309;51.450;-2.624;2024-03-02T08:51:37;2.30;;;2.10;;
24147;SDS011;12309;51.450;-2.624;2024-03-02T08:54:02;2.30;;;2.10;;
24147;SDS011;12309;51.450;-2.624;2024-03-02T08:56:29;1.93;;;1.83;;
24147;SDS011;12309;51.450;-2.624;2024-03-02T08:58:55;1.90;;;1.80;;
24147;SDS011;12309;51.450;-2.624;2024-03-02T09:01:21;1.90;;;1.70;;
24147;SDS011;12309;51.450;-2.624;2024-03-02T09:03:47;1.90;;;1.80;;
24147;SDS011;12309;51.450;-2.624;2024-03-02T09:06:14;1.70;;;1.60;;
24147;SDS011;12309;51.450;-2.624;2024-03-02T09:08:42;2.00;;;1.90;;
24147;SDS011;12309;51.450;-2.624;2024-03-02T09:11:08;3.60;;;2.07;;
24147;SDS011;12309;51.450;-2.624;2024-03-02T09:13:38;1.77;;;1.67;;
24147;SDS011;12309;51.450;-2.624;2024-03-02T09:16:04;1.77;;;1.60;;
24147;SDS011;12309;51.450;-2.624;2024-03-02T09:18:30;1.60;;;1.50;;
24147;SDS011;12309;51.450;-2.624;2024-03-02T09:20:56;1.83;;;1.73;;
24147;SDS011;12309;51.450;-2.624;2024-03-02T09:23:22;2.50;;;1.90;;
24147;SDS011;12309;51.450;-2.624;2024-03-02T09:25:48;1.43;;;1.33;;
24147;SDS011;12309;51.450;-2.624;2024-03-02T09:28:15;1.87;;;1.50;;
24147;SDS011;12309;51.450;-2.624;2024-03-02T09:30:41;1.60;;;1.50;;
24147;SDS011;12309;51.450;-2.624;2024-03-02T09:33:06;4.47;;;1.70;;
24147;SDS011;12309;51.450;-2.624;2024-03-02T09:35:32;1.40;;;1.30;;
24147;SDS011;12309;51.450;-2.624;2024-03-02T09:37:58;1.80;;;1.40;;
24147;SDS011;12309;51.450;-2.624;2024-03-02T09:40:23;1.63;;;1.37;;
24147;SDS011;12309;51.450;-2.624;2024-03-02T09:42:50;1.23;;;1.23;;
24147;SDS011;12309;51.450;-2.624;2024-03-02T09:45:24;1.47;;;1.37;;
24147;SDS011;12309;51.450;-2.624;2024-03-02T09:47:51;1.50;;;1.40;;
24147;SDS011;12309;51.450;-2.624;2024-03-02T09:50:17;1.73;;;1.47;;
24147;SDS011;12309;51.450;-2.624;2024-03-02T09:52:43;1.60;;;1.50;;
24147;SDS011;12309;51.450;-2.624;2024-03-02T09:55:12;1.50;;;1.40;;
24147;SDS011;12309;51.450;-2.624;2024-03-02T09:57:38;1.73;;;1.50;;
24147;SDS011;12309;51.450;-2.624;2024-03-02T10:00:07;1.50;;;1.40;;
24147;SDS011;12309;51.450;-2.624;2024-03-02T10:02:33;1.40;;;1.30;;
24147;SDS011;12309;51.450;-2.624;2024-03-02T10:04:59;1.43;;;1.33;;
24147;SDS011;12309;51.450;-2.624;2024-03-02T10:07:24;1.50;;;1.40;;
24147;SDS011;12309;51.450;-2.624;2024-03-02T10:09:50;1.50;;;1.40;;
24147;SDS011;12309;51.450;-2.624;2024-03-02T10:12:17;1.47;;;1.30;;
24147;SDS011;12309;51.450;-2.624;2024-03-02T10:14:44;1.60;;;1.27;;
24147;SDS011;12309;51.450;-2.624;2024-03-02T10:17:10;1.47;;;1.37;;
24147;SDS011;12309;51.450;-2.624;2024-03-02T10:19:37;1.33;;;1.33;;
24147;SDS011;12309;51.450;-2.624;2024-03-02T10:22:07;3.90;;;1.93;;
24147;SDS011;12309;51.450;-2.624;2024-03-02T10:24:40;1.70;;;1.60;;
24147;SDS011;12309;51.450;-2.624;2024-03-02T10:27:10;2.57;;;1.80;;
24147;SDS011;12309;51.450;-2.624;2024-03-02T10:29:45;1.90;;;1.80;;
24147;SDS011;12309;51.450;-2.624;2024-03-02T10:32:12;1.93;;;1.60;;
24147;SDS011;12309;51.450;-2.624;2024-03-02T10:34:39;1.70;;;1.60;;
24147;SDS011;12309;51.450;-2.624;2024-03-02T10:37:05;2.93;;;1.70;;
24147;SDS011;12309;51.450;-2.624;2024-03-02T10:39:32;2.67;;;1.50;;
24147;SDS011;12309;51.450;-2.624;2024-03-02T10:42:00;2.43;;;1.60;;
24147;SDS011;12309;51.450;-2.624;2024-03-02T10:44:28;1.73;;;1.63;;
24147;SDS011;12309;51.450;-2.624;2024-03-02T10:46:56;1.53;;;1.30;;
24147;SDS011;12309;51.450;-2.624;2024-03-02T10:49:23;3.33;;;1.60;;
24147;SDS011;12309;51.450;-2.624;2024-03-02T10:51:49;2.30;;;1.50;;
24147;SDS011;12309;51.450;-2.624;2024-03-02T10:54:15;1.70;;;1.60;;
24147;SDS011;12309;51.450;-2.624;2024-03-02T10:56:43;2.83;;;1.30;;
24147;SDS011;12309;51.450;-2.624;2024-03-02T11:01:47;1.40;;;1.37;;
24147;SDS011;12309;51.450;-2.624;2024-03-02T11:04:15;1.67;;;1.40;;
24147;SDS011;12309;51.450;-2.624;2024-03-02T11:06:48;2.73;;;1.37;;
24147;SDS011;12309;51.450;-2.624;2024-03-02T11:09:14;1.93;;;1.50;;
24147;SDS011;12309;51.450;-2.624;2024-03-02T11:11:48;1.47;;;1.33;;
24147;SDS011;12309;51.450;-2.624;2024-03-02T11:14:20;3.07;;;1.40;;
24147;SDS011;12309;51.450;-2.624;2024-03-02T11:16:49;1.50;;;1.40;;
24147;SDS011;12309;51.450;-2.624;2024-03-02T11:19:16;1.70;;;1.60;;
24147;SDS011;12309;51.450;-2.624;2024-03-02T11:21:43;1.30;;;1.30;;
24147;SDS011;12309;51.450;-2.624;2024-03-02T11:26:52;2.20;;;2.00;;
24147;SDS011;12309;51.450;-2.624;2024-03-02T11:32:02;1.40;;;1.30;;
24147;SDS011;12309;51.450;-2.624;2024-03-02T11:34:35;1.70;;;1.60;;
24147;SDS011;12309;51.450;-2.624;2024-03-02T11:37:04;1.50;;;1.40;;
24147;SDS011;12309;51.450;-2.624;2024-03-02T11:39:30;1.93;;;1.40;;
24147;SDS011;12309;51.450;-2.624;2024-03-02T11:41:56;1.67;;;1.30;;
24147;SDS011;12309;51.450;-2.624;2024-03-02T11:44:26;1.40;;;1.30;;
24147;SDS011;12309;51.450;-2.624;2024-03-02T11:46:58;1.50;;;1.40;;
24147;SDS011;12309;51.450;-2.624;2024-03-02T11:49:41;1.60;;;1.50;;
24147;SDS011;12309;51.450;-2.624;2024-03-02T11:52:09;1.67;;;1.57;;
24147;SDS011;12309;51.450;-2.624;2024-03-02T11:54:39;1.57;;;1.47;;
24147;SDS011;12309;51.450;-2.624;2024-03-02T11:57:16;1.80;;;1.70;;
24147;SDS011;12309;51.450;-2.624;2024-03-02T11:59:43;2.87;;;1.70;;
24147;SDS011;12309;51.450;-2.624;2024-03-02T12:02:18;1.50;;;1.40;;
24147;SDS011;12309;51.450;-2.624;2024-03-02T12:04:45;1.77;;;1.67;;
24147;SDS011;12309;51.450;-2.624;2024-03-02T12:07:18;1.90;;;1.50;;
24147;SDS011;12309;51.450;-2.624;2024-03-02T12:09:46;1.60;;;1.50;;
24147;SDS011;12309;51.450;-2.624;2024-03-02T12:12:12;2.30;;;1.50;;
24147;SDS011;12309;51.450;-2.624;2024-03-02T12:14:49;2.13;;;1.57;;
24147;SDS011;12309;51.450;-2.624;2024-03-02T12:17:15;1.50;;;1.40;;
24147;SDS011;12309;51.450;-2.624;2024-03-02T12:19:41;1.53;;;1.43;;
24147;SDS011;12309;51.450;-2.624;2024-03-02T12:22:07;1.60;;;1.50;;
24147;SDS011;12309;51.450;-2.624;2024-03-02T12:24:32;1.60;;;1.50;;
24147;SDS011;12309;51.450;-2.624;2024-03-02T12:26:58;1.40;;;1.30;;
24147;SDS011;12309;51.450;-2.624;2024-03-02T12:29:24;1.80;;;1.70;;
24147;SDS011;12309;51.450;-2.624;2024-03-02T12:31:50;2.87;;;1.70;;
24147;SDS011;12309;51.450;-2.624;2024-03-02T12:34:20;1.97;;;1.80;;
24147;SDS011;12309;51.450;-2.624;2024-03-02T12:36:46;1.80;;;1.70;;
24147;SDS011;12309;51.450;-2.624;2024-03-02T12:39:14;2.10;;;1.90;;
24147;SDS011;12309;51.450;-2.624;2024-03-02T12:41:41;1.90;;;1.80;;
24147;SDS011;12309;51.450;-2.624;2024-03-02T12:44:07;1.90;;;1.80;;
24147;SDS011;12309;51.450;-2.624;2024-03-02T12:46:33;4.87;;;2.93;;
24147;SDS011;12309;51.450;-2.624;2024-03-02T12:49:10;2.13;;;1.90;;
24147;SDS011;12309;51.450;-2.624;2024-03-02T12:51:38;3.00;;;2.00;;
24147;SDS011;12309;51.450;-2.624;2024-03-02T12:54:07;1.87;;;1.77;;
24147;SDS011;12309;51.450;-2.624;2024-03-02T12:56:35;2.80;;;2.50;;
24147;SDS011;12309;51.450;-2.624;2024-03-02T12:59:03;1.50;;;1.40;;
24147;SDS011;12309;51.450;-2.624;2024-03-02T13:01:29;2.00;;;1.90;;
24147;SDS011;12309;51.450;-2.624;2024-03-02T13:03:54;2.93;;;2.60;;
24147;SDS011;12309;51.450;-2.624;2024-03-02T13:06:22;2.50;;;2.30;;
24147;SDS011;12309;51.450;-2.624;2024-03-02T13:08:48;5.80;;;3.90;;
24147;SDS011;12309;51.450;-2.624;2024-03-02T13:11:14;1.90;;;1.70;;
24147;SDS011;12309;51.450;-2.624;2024-03-02T13:13:41;2.93;;;2.63;;
24147;SDS011;12309;51.450;-2.624;2024-03-02T13:16:08;1.60;;;1.50;;
24147;SDS011;12309;51.450;-2.624;2024-03-02T13:18:35;2.60;;;2.40;;
24147;SDS011;12309;51.450;-2.624;2024-03-02T13:21:01;2.87;;;2.23;;
24147;SDS011;12309;51.450;-2.624;2024-03-02T13:23:26;2.37;;;1.80;;
24147;SDS011;12309;51.450;-2.624;2024-03-02T13:25:54;1.80;;;1.70;;
24147;SDS011;12309;51.450;-2.624;2024-03-02T13:28:20;2.90;;;2.00;;
24147;SDS011;12309;51.450;-2.624;2024-03-02T13:30:46;2.47;;;1.90;;
24147;SDS011;12309;51.450;-2.624;2024-03-02T13:33:12;1.80;;;1.50;;
24147;SDS011;12309;51.450;-2.624;2024-03-02T13:35:38;1.30;;;1.20;;
24147;SDS011;12309;51.450;-2.624;2024-03-02T13:38:03;1.67;;;1.47;;
24147;SDS011;12309;51.450;-2.624;2024-03-02T13:40:29;1.80;;;1.70;;
24147;SDS011;12309;51.450;-2.624;2024-03-02T13:43:00;2.30;;;2.10;;
24147;SDS011;12309;51.450;-2.624;2024-03-02T13:45:26;2.13;;;1.83;;
24147;SDS011;12309;51.450;-2.624;2024-03-02T13:47:52;6.87;;;2.50;;
24147;SDS011;12309;51.450;-2.624;2024-03-02T13:50:18;2.10;;;1.90;;
24147;SDS011;12309;51.450;-2.624;2024-03-02T13:52:45;2.57;;;2.37;;
24147;SDS011;12309;51.450;-2.624;2024-03-02T13:55:10;3.53;;;2.43;;
24147;SDS011;12309;51.450;-2.624;2024-03-02T13:57:36;1.60;;;1.50;;
24147;SDS011;12309;51.450;-2.624;2024-03-02T14:00:02;1.70;;;1.60;;
24147;SDS011;12309;51.450;-2.624;2024-03-02T14:02:28;1.60;;;1.50;;
24147;SDS011;12309;51.450;-2.624;2024-03-02T14:04:54;1.60;;;1.50;;
24147;SDS011;12309;51.450;-2.624;2024-03-02T14:07:19;1.57;;;1.47;;
24147;SDS011;12309;51.450;-2.624;2024-03-02T14:09:45;2.13;;;1.47;;
24147;SDS011;12309;51.450;-2.624;2024-03-02T14:12:12;1.50;;;1.40;;
24147;SDS011;12309;51.450;-2.624;2024-03-02T14:14:38;2.13;;;1.63;;
24147;SDS011;12309;51.450;-2.624;2024-03-02T14:17:04;2.60;;;1.90;;
24147;SDS011;12309;51.450;-2.624;2024-03-02T14:19:31;3.13;;;1.80;;
24147;SDS011;12309;51.450;-2.624;2024-03-02T14:21:57;2.00;;;1.90;;
24147;SDS011;12309;51.450;-2.624;2024-03-02T14:24:23;1.70;;;1.60;;
24147;SDS011;12309;51.450;-2.624;2024-03-02T14:26:51;1.67;;;1.57;;
24147;SDS011;12309;51.450;-2.624;2024-03-02T14:29:17;1.70;;;1.60;;
24147;SDS011;12309;51.450;-2.624;2024-03-02T14:31:43;1.97;;;1.80;;
24147;SDS011;12309;51.450;-2.624;2024-03-02T14:34:09;1.77;;;1.67;;
24147;SDS011;12309;51.450;-2.624;2024-03-02T14:36:34;1.70;;;1.60;;
24147;SDS011;12309;51.450;-2.624;2024-03-02T14:39:00;1.80;;;1.60;;
24147;SDS011;12309;51.450;-2.624;2024-03-02T14:41:26;2.07;;;1.60;;
24147;SDS011;12309;51.450;-2.624;2024-03-02T14:43:52;2.17;;;1.70;;
24147;SDS011;12309;51.450;-2.624;2024-03-02T14:46:17;2.10;;;1.90;;